Time;durP1;ratioP1;P1;durP2;ratioP2;P2;SDS_P1;SDS_P2;PMS_P1;PMS_P2;Temp;Humidity;BMP_temperature;BMP_pressure;BME280_temperature;BME280_humidity;BME280_pressure;Samples;Min_cycle;Max_cycle;Signal;HPM_P1;HPM_P2
2023/01/02 00:02:01;;;;;;;;;;;;;;;24.32;36.23;96498.28;4954508;28;1369;-81
2023/01/02 00:04:26;;;;;;;;;;;;;;;24.30;36.15;96487.75;4953615;28;1672;-82
2023/01/02 00:06:51;;;;;;;;;;;;;;;24.31;36.46;96492.09;4955674;28;1464;-81
2023/01/02 00:09:17;;;;;;;;;;;;;;;24.31;36.36;96486.75;4957546;29;1510;-81
2023/01/02 00:11:42;;;;;;;;;;;;;;;24.30;36.26;96482.38;4950235;28;1719;-81
2023/01/02 00:14:08;;;;;;;;;;;;;;;24.30;36.33;96493.09;4956148;29;1308;-81
2023/01/02 00:16:33;;;;;;;;;;;;;;;24.30;36.51;96481.56;4956488;28;1964;-81
2023/01/02 00:18:58;;;;;;;;;;;;;;;24.31;36.46;96491.28;4953158;28;1708;-81
2023/01/02 00:21:24;;;;;;;;;;;;;;;24.32;36.57;96484.88;4957292;28;1719;-81
2023/01/02 00:23:49;;;;;;;;;;;;;;;24.33;36.34;96476.63;4949994;28;1548;-81
2023/01/02 00:26:14;;;;;;;;;;;;;;;24.33;36.50;96479.31;4950225;28;1767;-81
2023/01/02 00:28:39;;;;;;;;;;;;;;;24.34;36.53;96483.66;4950986;29;1647;-82
2023/01/02 00:31:06;;;;;;;;;;;;;;;24.33;36.33;96478.47;4955142;28;1545;-81
2023/01/02 00:33:31;;;;;;;;;;;;;;;24.33;36.24;96473.94;4943157;29;1712;-79
2023/01/02 00:35:57;;;;;;;;;;;;;;;24.33;36.47;96478.47;4949381;29;1654;-80
2023/01/02 00:38:22;;;;;;;;;;;;;;;24.35;36.27;96471.91;4955026;28;1875;-80
2023/01/02 00:40:47;;;;;;;;;;;;;;;24.35;36.55;96477.28;4943800;29;1431;-80
2023/01/02 00:43:12;;;;;;;;;;;;;;;24.34;36.25;96475.63;4957699;29;1517;-80
2023/01/02 00:45:38;;;;;;;;;;;;;;;24.35;36.41;96476.44;4952570;28;1607;-80
2023/01/02 00:48:03;;;;;;;;;;;;;;;24.34;36.31;96475.63;4958931;29;1431;-80
2023/01/02 00:50:28;;;;;;;;;;;;;;;24.35;36.30;96474.59;4959484;28;938;-81
2023/01/02 00:52:53;;;;;;;;;;;;;;;24.35;36.34;96477.28;4957768;29;1415;-80
2023/01/02 00:55:19;;;;;;;;;;;;;;;24.35;36.56;96476.44;4956472;29;1490;-81
2023/01/02 00:57:44;;;;;;;;;;;;;;;24.35;36.44;96484.50;4951784;28;1898;-81
2023/01/02 01:00:09;;;;;;;;;;;;;;;24.35;36.43;96479.94;4957295;29;1438;-82
2023/01/02 01:02:35;;;;;;;;;;;;;;;24.37;36.45;96477.09;4954230;29;1373;-81
2023/01/02 01:05:00;;;;;;;;;;;;;;;24.36;36.66;96476.25;4958101;28;1471;-82
2023/01/02 01:07:27;;;;;;;;;;;;;;;24.35;36.72;96471.91;4956924;29;1569;-82
2023/01/02 01:09:52;;;;;;;;;;;;;;;24.37;36.75;96474.41;4950873;28;1394;-81
2023/01/02 01:12:18;;;;;;;;;;;;;;;24.37;36.63;96477.91;4953820;29;1711;-80
2023/01/02 01:14:43;;;;;;;;;;;;;;;24.36;36.75;96484.31;4955621;28;1566;-81
2023/01/02 01:17:08;;;;;;;;;;;;;;;24.35;36.84;96479.94;4942410;29;1958;-82
2023/01/02 01:19:34;;;;;;;;;;;;;;;24.37;36.63;96477.09;4935272;29;1264;-81
2023/01/02 01:22:00;;;;;;;;;;;;;;;24.37;36.84;96477.91;4954427;29;1393;-82
2023/01/02 01:24:25;;;;;;;;;;;;;;;24.37;36.98;96480.59;4953440;29;1588;-81
2023/01/02 01:26:51;;;;;;;;;;;;;;;24.37;36.80;96467.19;4955066;28;1560;-81
2023/01/02 01:29:16;;;;;;;;;;;;;;;24.36;36.74;96472.72;4940052;29;1615;-80
2023/01/02 01:31:41;;;;;;;;;;;;;;;24.36;37.14;96470.91;4948279;28;1325;-81
2023/01/02 01:34:06;;;;;;;;;;;;;;;24.37;37.01;96466.34;4957228;29;1504;-81
2023/01/02 01:36:35;;;;;;;;;;;;;;;24.38;36.64;96470.69;4958643;28;1965;-82
2023/01/02 01:39:00;;;;;;;;;;;;;;;24.38;36.95;96476.88;4956959;28;1403;-82
2023/01/02 01:41:25;;;;;;;;;;;;;;;24.38;36.76;96476.88;4954566;28;1367;-82
2023/01/02 01:43:52;;;;;;;;;;;;;;;24.39;37.06;96469.66;4942223;29;1505;-81
2023/01/02 01:46:39;;;;;;;;;;;;;;;24.39;37.15;96467.81;4954568;28;1224;-81
2023/01/02 01:49:05;;;;;;;;;;;;;;;24.39;37.17;96451.72;4957944;28;1469;-81
2023/01/02 01:51:32;;;;;;;;;;;;;;;24.37;37.26;96461.81;4956859;28;1546;-82
2023/01/02 01:54:04;;;;;;;;;;;;;;;24.38;37.29;96462.66;4954353;28;1210;-82
2023/01/02 01:56:31;;;;;;;;;;;;;;;24.38;37.47;96458.09;4956411;29;1906;-80
2023/01/02 01:58:57;;;;;;;;;;;;;;;24.38;37.26;96462.66;4956463;29;1317;-79
2023/01/02 02:01:22;;;;;;;;;;;;;;;24.39;37.34;96450.88;4954294;28;1392;-81
2023/01/02 02:03:48;;;;;;;;;;;;;;;24.40;37.51;96450.69;4956336;28;1576;-81
2023/01/02 02:06:15;;;;;;;;;;;;;;;24.40;37.35;96450.69;4948811;28;1525;-81
2023/01/02 02:09:01;;;;;;;;;;;;;;;24.42;37.40;96447.84;4943524;29;1351;-81
2023/01/02 02:11:27;;;;;;;;;;;;;;;24.42;37.48;96451.34;4949688;29;1474;-81
2023/01/02 02:13:55;;;;;;;;;;;;;;;24.41;37.59;96448.84;4949919;28;1433;-81
2023/01/02 02:16:39;;;;;;;;;;;;;;;24.41;37.48;96452.34;4936419;28;1290;-81
2023/01/02 02:19:23;;;;;;;;;;;;;;;24.41;37.36;96455.03;4965708;28;1474;-82
2023/01/02 02:21:54;;;;;;;;;;;;;;;24.42;37.52;96461.25;4953802;28;1387;-82
2023/01/02 02:24:49;;;;;;;;;;;;;;;24.42;37.60;96463.94;4956849;28;1378;-82
2023/01/02 02:27:21;;;;;;;;;;;;;;;24.41;37.66;96462.25;4941803;29;1232;-83
2023/01/02 02:30:01;;;;;;;;;;;;;;;24.40;37.85;96455.25;4942991;28;1598;-82
2023/01/02 02:32:42;;;;;;;;;;;;;;;24.40;37.65;96458.75;4972489;28;1470;-83
2023/01/02 02:35:07;;;;;;;;;;;;;;;24.40;37.68;96455.25;4950778;29;1431;-83
2023/01/02 02:37:40;;;;;;;;;;;;;;;24.40;37.90;96453.38;4961824;28;1960;-82
2023/01/02 02:40:28;;;;;;;;;;;;;;;24.40;38.00;96456.06;4956601;28;1274;-83
2023/01/02 02:42:54;;;;;;;;;;;;;;;24.39;37.97;96454.41;4962616;28;1490;-83
2023/01/02 02:45:36;;;;;;;;;;;;;;;24.41;37.59;96452.34;4963188;28;1438;-83
2023/01/02 02:48:24;;;;;;;;;;;;;;;24.41;37.68;96456.88;4964146;28;1539;-83
2023/01/02 02:50:50;;;;;;;;;;;;;;;24.43;37.96;96449.50;4958415;28;1449;-84
2023/01/02 02:53:23;;;;;;;;;;;;;;;24.43;37.61;96446.84;4955946;29;1327;-83
2023/01/02 02:55:57;;;;;;;;;;;;;;;24.44;37.91;96441.25;4956538;28;1560;-82
2023/01/02 02:58:24;;;;;;;;;;;;;;;24.45;38.00;96442.09;4952569;29;1963;-83
2023/01/02 03:00:49;;;;;;;;;;;;;;;24.44;37.57;96441.25;4960958;28;1568;-81
2023/01/02 03:03:16;;;;;;;;;;;;;;;24.45;37.77;96434.88;4953966;28;1285;-81
2023/01/02 03:05:43;;;;;;;;;;;;;;;24.45;37.85;96437.56;4959572;28;1380;-81
2023/01/02 03:08:15;;;;;;;;;;;;;;;24.45;37.92;96431.38;4959295;29;1587;-81
2023/01/02 03:10:47;;;;;;;;;;;;;;;24.44;37.89;96430.53;4947493;29;1483;-81
2023/01/02 03:13:25;;;;;;;;;;;;;;;24.44;37.84;96427.84;4953607;29;1196;-83
2023/01/02 03:16:09;;;;;;;;;;;;;;;24.43;37.93;96418.16;4940644;29;1559;-81
2023/01/02 03:18:38;;;;;;;;;;;;;;;24.41;37.89;96416.66;4959297;29;1933;-81
2023/01/02 03:21:09;;;;;;;;;;;;;;;24.42;38.02;96411.09;4959008;29;1591;-82
2023/01/02 03:23:38;;;;;;;;;;;;;;;24.44;37.88;96409.06;4958190;28;1546;-82
2023/01/02 03:26:03;;;;;;;;;;;;;;;24.45;37.66;96413.44;4954202;28;1351;-81
2023/01/02 03:28:30;;;;;;;;;;;;;;;24.43;37.72;96415.47;4960188;29;1279;-81
2023/01/02 03:30:58;;;;;;;;;;;;;;;24.45;37.74;96412.59;4960616;28;1556;-81
2023/01/02 03:33:29;;;;;;;;;;;;;;;24.44;37.72;96417.09;4949241;28;1485;-81
2023/01/02 03:36:16;;;;;;;;;;;;;;;24.45;37.66;96410.75;4946703;28;1254;-82
2023/01/02 03:38:44;;;;;;;;;;;;;;;24.45;37.92;96421.47;4955477;28;1930;-80
2023/01/02 03:41:18;;;;;;;;;;;;;;;24.46;37.62;96428.47;4959791;28;1439;-80
2023/01/02 03:43:45;;;;;;;;;;;;;;;24.45;37.69;96442.09;4959046;28;1541;-81
2023/01/02 03:46:16;;;;;;;;;;;;;;;24.44;37.81;96438.56;4958621;29;1355;-80
2023/01/02 03:48:41;;;;;;;;;;;;;;;24.44;38.03;96443.94;4954027;28;1528;-81
2023/01/02 03:51:07;;;;;;;;;;;;;;;24.45;37.91;96456.34;4960263;28;1518;-81
2023/01/02 03:53:33;;;;;;;;;;;;;;;24.45;37.74;96456.34;4956072;29;1529;-80
2023/01/02 03:56:02;;;;;;;;;;;;;;;24.46;37.88;96449.13;4969130;28;1376;-81
2023/01/02 03:58:34;;;;;;;;;;;;;;;24.45;37.94;96453.66;4957163;29;1958;-82
2023/01/02 04:01:03;;;;;;;;;;;;;;;24.45;37.88;96459.03;4939014;29;1626;-81
2023/01/02 04:03:51;;;;;;;;;;;;;;;24.46;37.73;96459.84;4958151;29;1645;-81
2023/01/02 04:06:19;;;;;;;;;;;;;;;24.44;37.72;96462.72;4959531;29;1281;-81
2023/01/02 04:08:55;;;;;;;;;;;;;;;24.45;37.99;96467.06;4957789;29;1506;-80
2023/01/02 04:11:25;;;;;;;;;;;;;;;24.46;37.73;96471.41;4954261;28;1653;-81
2023/01/02 04:13:54;;;;;;;;;;;;;;;24.46;37.99;96474.09;4947683;28;1333;-81
2023/01/02 04:16:21;;;;;;;;;;;;;;;24.49;37.98;96475.56;4959701;29;1298;-81
2023/01/02 04:18:49;;;;;;;;;;;;;;;24.51;37.65;96473.53;4949782;29;1892;-82
2023/01/02 04:21:18;;;;;;;;;;;;;;;24.50;37.82;96482.56;4958357;29;1704;-81
2023/01/02 04:23:47;;;;;;;;;;;;;;;24.49;37.80;96490.84;4952899;28;1556;-81
2023/01/02 04:26:32;;;;;;;;;;;;;;;24.49;37.80;96483.59;4957935;28;1494;-81
2023/01/02 04:28:58;;;;;;;;;;;;;;;24.49;37.95;96485.47;4957339;28;1379;-81
2023/01/02 04:31:42;;;;;;;;;;;;;;;24.51;37.63;96484.25;4957307;28;1420;-82
2023/01/02 04:34:10;;;;;;;;;;;;;;;24.51;37.53;96478.06;4951299;28;1478;-82
2023/01/02 04:36:39;;;;;;;;;;;;;;;24.49;37.58;96488.16;4958251;29;1899;-81
2023/01/02 04:39:04;;;;;;;;;;;;;;;24.50;37.66;96495.16;4958146;28;1540;-82
2023/01/02 04:41:30;;;;;;;;;;;;;;;24.49;37.59;96501.56;4958306;29;1723;-81
2023/01/02 04:43:55;;;;;;;;;;;;;;;24.49;37.88;96496.19;4957793;28;1518;-81
2023/01/02 04:46:22;;;;;;;;;;;;;;;24.49;37.57;96497.03;4951541;28;1466;-82
2023/01/02 04:48:47;;;;;;;;;;;;;;;24.50;37.72;96495.16;4958588;28;1190;-81
2023/01/02 04:51:12;;;;;;;;;;;;;;;24.50;37.80;96498.66;4959568;28;874;-81
2023/01/02 04:53:38;;;;;;;;;;;;;;;24.51;37.65;96491.47;4958425;28;1591;-82
2023/01/02 04:56:03;;;;;;;;;;;;;;;24.51;37.89;96491.47;4956346;28;1586;-83
2023/01/02 04:58:28;;;;;;;;;;;;;;;24.51;37.91;96480.75;4950775;28;1898;-82
2023/01/02 05:00:54;;;;;;;;;;;;;;;24.49;37.89;96485.47;4956219;28;1529;-81
2023/01/02 05:03:19;;;;;;;;;;;;;;;24.50;37.98;96487.13;4954323;28;1519;-81
2023/01/02 05:05:44;;;;;;;;;;;;;;;24.50;37.75;96482.56;4957084;29;1518;-81
2023/01/02 05:08:10;;;;;;;;;;;;;;;24.52;37.96;96480.53;4952857;28;1539;-82
2023/01/02 05:10:35;;;;;;;;;;;;;;;24.52;37.90;96487.75;4953481;28;1602;-81
2023/01/02 05:13:01;;;;;;;;;;;;;;;24.53;37.73;96489.41;4944883;29;1461;-81
2023/01/02 05:15:26;;;;;;;;;;;;;;;24.53;37.85;96492.09;4955655;29;2042;-82
2023/01/02 05:17:51;;;;;;;;;;;;;;;24.52;37.71;96491.25;4958580;29;1903;-81
2023/01/02 05:20:17;;;;;;;;;;;;;;;24.52;38.06;96490.44;4952348;29;1557;-81
2023/01/02 05:25:27;;;;;;;;;;;;;;;24.49;38.02;96482.78;4959227;29;1343;-81
2023/01/02 05:27:53;;;;;;;;;;;;;;;24.49;37.91;96472.88;4958347;28;1351;-81
2023/01/02 05:30:19;;;;;;;;;;;;;;;24.52;37.87;96474.34;4955435;28;1328;-81
2023/01/02 05:32:44;;;;;;;;;;;;;;;24.53;37.94;96465.25;4954223;29;1332;-83
2023/01/02 05:35:09;;;;;;;;;;;;;;;24.53;37.82;96470.63;4956903;29;1411;-82
2023/01/02 05:37:34;;;;;;;;;;;;;;;24.52;37.83;96469.81;4950515;28;1886;-82
2023/01/02 05:40:00;;;;;;;;;;;;;;;24.57;38.09;96477.28;4948918;29;1620;-85
2023/01/02 05:42:25;;;;;;;;;;;;;;;24.58;37.70;96474.38;4958810;28;1735;-86
2023/01/02 05:44:52;;;;;;;;;;;;;;;24.54;37.88;96475.00;4963969;28;1319;-84
2023/01/02 05:47:17;;;;;;;;;;;;;;;24.55;37.75;96476.63;4962863;28;1720;-86
2023/01/02 05:49:43;;;;;;;;;;;;;;;24.56;37.83;96481.81;4963518;29;1561;-86
2023/01/02 05:52:08;;;;;;;;;;;;;;;24.50;37.84;96477.19;4962171;29;1446;-85
2023/01/02 05:54:33;;;;;;;;;;;;;;;24.51;37.90;96473.53;4959757;28;1403;-85
2023/01/02 05:56:58;;;;;;;;;;;;;;;24.52;37.82;96477.03;4964692;28;1884;-85
2023/01/02 05:59:24;;;;;;;;;;;;;;;24.51;37.71;96478.06;4984809;28;1375;-85
2023/01/02 06:01:49;;;;;;;;;;;;;;;24.51;37.95;96484.25;4967302;29;1506;-85
2023/01/02 06:04:15;;;;;;;;;;;;;;;24.49;37.89;96483.59;4965131;28;1404;-86
2023/01/02 06:06:40;;;;;;;;;;;;;;;24.49;38.08;96486.28;4965214;28;1434;-84
2023/01/02 06:09:06;;;;;;;;;;;;;;;24.56;38.22;96486.34;4962965;28;1564;-83
2023/01/02 06:11:32;;;;;;;;;;;;;;;24.56;37.87;96487.19;4964146;29;1429;-82
2023/01/02 06:13:58;;;;;;;;;;;;;;;24.60;37.89;96503.72;4962470;28;1447;-83
2023/01/02 06:16:24;;;;;;;;;;;;;;;24.60;37.46;96495.66;4958107;28;1379;-86
2023/01/02 06:18:50;;;;;;;;;;;;;;;24.61;37.14;96502.69;4948054;29;1919;-84
2023/01/02 06:21:16;;;;;;;;;;;;;;;24.60;36.52;96517.13;4946355;29;1408;-83
2023/01/02 06:23:42;;;;;;;;;;;;;;;22.05;25.53;96514.91;4956378;29;1552;-80
2023/01/02 06:26:17;;;;;;;;;;;;;;;20.32;26.41;96520.00;4961380;28;1201;-82
2023/01/02 06:28:44;;;;;;;;;;;;;;;19.20;27.21;96517.72;4956294;28;1094;-81
2023/01/02 06:31:13;;;;;;;;;;;;;;;18.36;27.54;96529.84;4961236;28;1173;-80
2023/01/02 06:33:39;;;;;;;;;;;;;;;17.83;28.00;96534.19;4959456;28;1205;-82
2023/01/02 06:36:06;;;;;;;;;;;;;;;17.45;27.86;96535.25;4962304;28;871;-82
2023/01/02 06:38:31;;;;;;;;;;;;;;;17.19;28.71;96535.06;4960472;29;1906;-82
2023/01/02 06:40:57;;;;;;;;;;;;;;;17.12;28.80;96534.00;4954352;28;1414;-81
2023/01/02 06:43:25;;;;;;;;;;;;;;;17.00;28.74;96528.88;4961726;28;1547;-81
2023/01/02 06:45:51;;;;;;;;;;;;;;;16.69;29.19;96522.97;4964084;28;1483;-90
2023/01/02 06:48:16;;;;;;;;;;;;;;;16.33;29.08;96521.91;4943310;29;1526;-81
2023/01/02 06:50:42;;;;;;;;;;;;;;;15.99;29.70;96529.47;4937667;28;1083;-82
2023/01/02 06:53:08;;;;;;;;;;;;;;;15.88;30.11;96528.66;4941182;29;1285;-81
2023/01/02 06:55:33;;;;;;;;;;;;;;;15.79;30.49;96532.09;4958188;29;1278;-81
2023/01/02 06:57:58;;;;;;;;;;;;;;;15.84;30.36;96529.06;4960595;29;1972;-81
2023/01/02 07:00:24;;;;;;;;;;;;;;;15.68;30.61;96526.94;4953620;29;1310;-83
2023/01/02 07:02:49;;;;;;;;;;;;;;;15.89;32.00;96532.13;4956125;28;1386;-84
2023/01/02 07:05:14;;;;;;;;;;;;;;;16.58;31.94;96525.78;4960173;29;1545;-84
2023/01/02 07:07:39;;;;;;;;;;;;;;;17.63;32.73;96522.81;4953469;29;1349;-84
2023/01/02 07:10:05;;;;;;;;;;;;;;;18.83;32.64;96529.50;4954265;28;1235;-85
2023/01/02 07:12:32;;;;;;;;;;;;;;;19.45;32.13;96522.16;4944609;29;1427;-82
2023/01/02 07:14:58;;;;;;;;;;;;;;;19.87;31.81;96526.63;4948474;29;1539;-81
2023/01/02 07:17:23;;;;;;;;;;;;;;;20.15;32.08;96521.81;4960554;29;1888;-83
2023/01/02 07:19:48;;;;;;;;;;;;;;;20.38;31.88;96523.84;4962638;28;1680;-84
2023/01/02 07:22:14;;;;;;;;;;;;;;;20.69;31.78;96521.34;4963217;28;1492;-84
2023/01/02 07:24:39;;;;;;;;;;;;;;;20.94;31.48;96527.44;4950216;28;1744;-82
2023/01/02 07:27:04;;;;;;;;;;;;;;;21.08;31.56;96525.88;4956675;28;1795;-81
2023/01/02 07:29:30;;;;;;;;;;;;;;;20.37;27.42;96524.81;4960950;29;1827;-84
2023/01/02 07:31:55;;;;;;;;;;;;;;;18.93;28.06;96526.75;4962050;28;806;-80
2023/01/02 07:34:20;;;;;;;;;;;;;;;18.02;29.05;96530.56;4959730;28;1514;-81
2023/01/02 07:36:46;;;;;;;;;;;;;;;17.48;29.46;96530.47;4943659;28;1958;-80
2023/01/02 07:39:11;;;;;;;;;;;;;;;17.09;30.19;96529.81;4958618;28;1482;-80
2023/01/02 07:41:36;;;;;;;;;;;;;;;16.76;30.57;96531.16;4959766;29;1178;-79
2023/01/02 07:44:01;;;;;;;;;;;;;;;16.51;31.08;96528.19;4959409;29;1458;-79
2023/01/02 07:46:27;;;;;;;;;;;;;;;16.21;31.92;96537.13;4959223;29;1187;-79
2023/01/02 07:48:52;;;;;;;;;;;;;;;16.05;32.31;96526.25;4952562;28;1570;-80
2023/01/02 07:51:18;;;;;;;;;;;;;;;15.93;32.55;96531.69;4958411;28;1356;-79
2023/01/02 07:53:43;;;;;;;;;;;;;;;15.84;33.06;96529.88;4950873;29;1507;-80
2023/01/02 07:56:08;;;;;;;;;;;;;;;16.25;34.34;96533.25;4952509;29;1828;-82
2023/01/02 07:58:34;;;;;;;;;;;;;;;17.27;33.60;96530.69;4960697;28;1886;-83
2023/01/02 08:01:04;;;;;;;;;;;;;;;18.12;32.88;96533.94;4952196;28;1778;-83
2023/01/02 08:03:30;;;;;;;;;;;;;;;18.77;32.18;96527.50;4959809;28;1506;-83
2023/01/02 08:06:01;;;;;;;;;;;;;;;19.21;31.82;96528.22;4959312;28;1723;-83
2023/01/02 08:08:26;;;;;;;;;;;;;;;19.59;31.62;96530.53;4957542;28;1386;-82
2023/01/02 08:10:51;;;;;;;;;;;;;;;19.87;31.53;96529.28;4950785;28;1439;-82
2023/01/02 08:13:17;;;;;;;;;;;;;;;20.12;31.39;96523.97;4957204;28;1471;-83
2023/01/02 08:15:42;;;;;;;;;;;;;;;20.32;31.37;96530.66;4950992;29;1399;-81
2023/01/02 08:18:07;;;;;;;;;;;;;;;20.50;30.93;96527.00;4966925;28;1895;-83
2023/01/02 08:20:33;;;;;;;;;;;;;;;20.67;30.97;96524.16;4959429;28;1368;-82
2023/01/02 08:22:58;;;;;;;;;;;;;;;20.85;30.67;96520.44;4952470;28;1678;-85
2023/01/02 08:25:23;;;;;;;;;;;;;;;21.02;30.76;96515.91;4957591;29;1664;-81
2023/01/02 08:27:48;;;;;;;;;;;;;;;21.17;30.54;96506.16;4958397;28;1491;-82
2023/01/02 08:30:14;;;;;;;;;;;;;;;21.30;30.41;96514.47;4960578;28;1206;-83
2023/01/02 08:32:39;;;;;;;;;;;;;;;21.42;30.57;96519.47;4959666;29;1233;-82
2023/01/02 08:35:06;;;;;;;;;;;;;;;21.53;30.31;96508.41;4954222;28;1205;-83
2023/01/02 08:37:31;;;;;;;;;;;;;;;21.62;30.42;96507.34;4965459;28;1963;-83
2023/01/02 08:39:56;;;;;;;;;;;;;;;21.71;30.32;96514.28;4961517;28;1708;-81
2023/01/02 08:42:22;;;;;;;;;;;;;;;21.80;30.22;96509.75;4960542;28;1541;-82
2023/01/02 08:44:47;;;;;;;;;;;;;;;21.87;30.03;96515.22;4952602;28;1739;-81
2023/01/02 08:47:13;;;;;;;;;;;;;;;21.61;29.63;96515.53;4951976;28;1495;-85
2023/01/02 08:49:38;;;;;;;;;;;;;;;21.73;29.55;96514.13;4962424;28;1386;-83
2023/01/02 08:52:03;;;;;;;;;;;;;;;21.00;28.29;96516.06;4957802;29;1751;-83
2023/01/02 08:54:29;;;;;;;;;;;;;;;20.35;28.83;96513.47;4960230;28;1292;-85
2023/01/02 08:56:54;;;;;;;;;;;;;;;19.87;29.33;96510.66;4951961;28;1902;-86
2023/01/02 08:59:21;;;;;;;;;;;;;;;19.66;30.23;96499.59;4958112;29;1217;-84
2023/01/02 09:01:47;;;;;;;;;;;;;;;19.57;31.10;96498.72;4957235;28;1570;-83
2023/01/02 09:04:13;;;;;;;;;;;;;;;19.38;31.86;96493.66;4957309;28;1560;-82
2023/01/02 09:06:38;;;;;;;;;;;;;;;19.20;32.56;96501.75;4959470;29;1332;-82
2023/01/02 09:09:05;;;;;;;;;;;;;;;19.26;33.38;96490.47;4953975;28;1416;-86
2023/01/02 09:11:31;;;;;;;;;;;;;;;19.82;33.19;96496.16;4953535;28;1641;-83
2023/01/02 09:13:58;;;;;;;;;;;;;;;20.31;32.68;96483.66;4941469;29;1200;-84
2023/01/02 09:16:23;;;;;;;;;;;;;;;20.72;32.10;96483.66;4941689;28;1368;-84
2023/01/02 09:18:49;;;;;;;;;;;;;;;20.99;31.85;96485.06;4961784;28;1895;-83
2023/01/02 09:21:14;;;;;;;;;;;;;;;21.20;31.65;96479.13;4953271;28;1241;-82
2023/01/02 09:23:39;;;;;;;;;;;;;;;21.37;31.50;96471.91;4957691;28;1497;-84
2023/01/02 09:26:05;;;;;;;;;;;;;;;21.51;31.31;96473.00;4960565;28;1534;-84
2023/01/02 09:28:32;;;;;;;;;;;;;;;21.63;31.14;96465.44;4970875;28;1387;-85
2023/01/02 09:30:57;;;;;;;;;;;;;;;21.72;31.26;96459.03;4956191;28;1461;-83
2023/01/02 09:33:23;;;;;;;;;;;;;;;21.81;31.15;96457.16;4958575;28;1426;-84
2023/01/02 09:35:48;;;;;;;;;;;;;;;21.88;31.07;96450.06;4964532;28;1743;-85
2023/01/02 09:38:13;;;;;;;;;;;;;;;21.96;30.92;96450.00;4964065;28;1944;-84
2023/01/02 09:40:44;;;;;;;;;;;;;;;22.02;30.74;96446.63;4965073;28;1570;-84
2023/01/02 09:43:10;;;;;;;;;;;;;;;22.08;30.90;96443.22;4958433;28;1404;-84
2023/01/02 09:45:39;;;;;;;;;;;;;;;22.13;30.85;96432.00;4964980;28;1411;-85
2023/01/02 09:48:05;;;;;;;;;;;;;;;22.18;30.73;96433.16;4964254;28;1699;-85
2023/01/02 09:50:30;;;;;;;;;;;;;;;22.22;30.72;96422.91;4964881;28;898;-85
2023/01/02 09:52:59;;;;;;;;;;;;;;;22.28;30.70;96424.03;4960197;28;1367;-85
2023/01/02 09:55:27;;;;;;;;;;;;;;;22.33;30.76;96421.66;4951851;28;1565;-83
2023/01/02 09:58:10;;;;;;;;;;;;;;;22.35;30.68;96414.28;4966171;29;1906;-82
2023/01/02 10:00:37;;;;;;;;;;;;;;;22.40;30.83;96409.22;4961210;29;1250;-83
2023/01/02 10:03:21;;;;;;;;;;;;;;;22.42;30.84;96413.34;4963821;28;1268;-82
2023/01/02 10:05:49;;;;;;;;;;;;;;;22.46;30.63;96405.81;4959381;28;1027;-82
2023/01/02 10:08:14;;;;;;;;;;;;;;;22.48;30.62;96397.59;4960371;28;1824;-80
2023/01/02 10:10:51;;;;;;;;;;;;;;;22.50;30.88;96395.59;4962726;28;1356;-83
2023/01/02 10:13:22;;;;;;;;;;;;;;;22.53;30.79;96393.34;4959975;28;1743;-88
2023/01/02 10:15:49;;;;;;;;;;;;;;;22.55;30.99;96388.66;4953787;29;1696;-84
2023/01/02 10:18:28;;;;;;;;;;;;;;;22.61;30.69;96392.44;4955349;28;1919;-83
2023/01/02 10:21:03;;;;;;;;;;;;;;;22.64;30.78;96390.22;4956902;29;1514;-83
2023/01/02 10:23:32;;;;;;;;;;;;;;;22.67;30.84;96378.34;4958833;29;1674;-89
2023/01/02 10:26:11;;;;;;;;;;;;;;;22.71;30.75;96376.94;4963720;28;1662;-83
2023/01/02 10:28:51;;;;;;;;;;;;;;;22.77;30.71;96375.34;4956293;28;1640;-83
2023/01/02 10:31:21;;;;;;;;;;;;;;;22.82;31.15;96373.78;4961707;28;1184;-84
2023/01/02 10:33:50;;;;;;;;;;;;;;;22.81;30.53;96379.34;4962481;29;1333;-83
2023/01/02 10:36:23;;;;;;;;;;;;;;;22.67;30.97;96379.16;4961884;28;1305;-82
2023/01/02 10:38:49;;;;;;;;;;;;;;;22.69;31.26;96365.59;4962171;28;1965;-81
2023/01/02 10:41:15;;;;;;;;;;;;;;;22.74;30.99;96367.72;4954373;28;1706;-82
2023/01/02 10:43:40;;;;;;;;;;;;;;;22.78;31.21;96369.84;4959393;28;1394;-82
2023/01/02 10:46:05;;;;;;;;;;;;;;;22.74;31.13;96365.03;4960508;29;1373;-81
2023/01/02 10:48:33;;;;;;;;;;;;;;;22.78;31.24;96364.47;4961959;28;1065;-81
2023/01/02 10:51:01;;;;;;;;;;;;;;;22.80;31.07;96367.00;4956909;28;1240;-83
2023/01/02 10:53:31;;;;;;;;;;;;;;;22.85;31.33;96354.72;4955471;29;1641;-83
2023/01/02 10:56:01;;;;;;;;;;;;;;;22.93;31.66;96356.44;4962350;29;1235;-80
2023/01/02 10:58:28;;;;;;;;;;;;;;;22.78;30.02;96355.63;4960516;29;1883;-83
2023/01/02 11:01:05;;;;;;;;;;;;;;;22.58;31.40;96350.84;4960884;28;1479;-81
2023/01/02 11:03:31;;;;;;;;;;;;;;;22.66;31.77;96339.22;4953840;28;1792;-81
2023/01/02 11:05:57;;;;;;;;;;;;;;;22.72;31.82;96332.31;4954878;29;1403;-79
2023/01/02 11:08:32;;;;;;;;;;;;;;;22.77;31.63;96328.06;4961120;28;1303;-80
2023/01/02 11:11:00;;;;;;;;;;;;;;;22.82;31.64;96328.28;4960050;28;1400;-80
2023/01/02 11:13:26;;;;;;;;;;;;;;;22.84;31.54;96326.28;4968989;28;1755;-87
2023/01/02 11:15:55;;;;;;;;;;;;;;;22.86;31.32;96321.56;4964789;28;1612;-81
2023/01/02 11:18:24;;;;;;;;;;;;;;;22.88;31.55;96316.88;4941580;29;1958;-81
2023/01/02 11:20:52;;;;;;;;;;;;;;;22.92;31.40;96316.50;4948222;28;1418;-81
2023/01/02 11:23:19;;;;;;;;;;;;;;;22.92;31.42;96311.97;4961001;28;1716;-83
2023/01/02 11:25:46;;;;;;;;;;;;;;;22.93;31.35;96307.44;4954619;28;1755;-81
2023/01/02 11:28:19;;;;;;;;;;;;;;;22.94;31.43;96304.59;4960253;28;1681;-81
2023/01/02 11:30:46;;;;;;;;;;;;;;;22.94;31.34;96298.38;4947917;28;1508;-81
2023/01/02 11:33:20;;;;;;;;;;;;;;;22.96;31.40;96296.38;4957749;28;1625;-82
2023/01/02 11:35:45;;;;;;;;;;;;;;;22.97;31.13;96292.66;4954158;28;1376;-81
2023/01/02 11:38:15;;;;;;;;;;;;;;;22.98;31.06;96286.31;4938004;28;1946;-82
2023/01/02 11:40:50;;;;;;;;;;;;;;;22.99;31.19;96290.66;4959479;28;1361;-80
2023/01/02 11:46:05;;;;;;;;;;;;;;;23.00;31.13;96282.44;4955175;29;1283;-82
2023/01/02 11:48:30;;;;;;;;;;;;;;;23.02;31.14;96280.38;4972450;28;1570;-81
2023/01/02 11:50:55;;;;;;;;;;;;;;;23.01;31.02;96276.06;4950237;28;1521;-81
2023/01/02 11:53:26;;;;;;;;;;;;;;;23.03;31.17;96271.34;4956891;28;1540;-81
2023/01/02 11:55:57;;;;;;;;;;;;;;;23.06;30.96;96270.97;4960693;28;1433;-81
2023/01/02 11:58:41;;;;;;;;;;;;;;;23.07;30.87;96267.25;4952233;28;1898;-81
2023/01/02 12:01:25;;;;;;;;;;;;;;;23.06;30.87;96262.94;4944971;28;1595;-82
2023/01/02 12:03:52;;;;;;;;;;;;;;;23.07;31.11;96255.72;4956372;28;1611;-81
2023/01/02 12:06:22;;;;;;;;;;;;;;;23.04;30.87;96262.28;4959921;28;1264;-80
2023/01/02 12:08:47;;;;;;;;;;;;;;;23.07;30.98;96261.91;4959888;29;1544;-81
2023/01/02 12:11:20;;;;;;;;;;;;;;;23.08;30.97;96255.56;4953492;28;1540;-82
2023/01/02 12:13:51;;;;;;;;;;;;;;;23.08;31.03;96246.66;4955853;28;1417;-82
2023/01/02 12:16:24;;;;;;;;;;;;;;;23.07;31.11;96251.19;4956858;28;1504;-82
2023/01/02 12:18:50;;;;;;;;;;;;;;;23.06;30.93;96249.56;4956271;28;1989;-82
2023/01/02 12:21:28;;;;;;;;;;;;;;;23.05;31.08;96247.06;4967385;28;1195;-83
2023/01/02 12:24:05;;;;;;;;;;;;;;;23.08;30.73;96242.16;4962909;28;1572;-83
2023/01/02 12:26:40;;;;;;;;;;;;;;;23.11;31.14;96241.78;4948500;28;1615;-83
2023/01/02 12:29:09;;;;;;;;;;;;;;;23.09;30.91;96241.13;4952514;29;1278;-81
2023/01/02 12:31:44;;;;;;;;;;;;;;;23.09;30.92;96235.78;4957083;28;1427;-82
2023/01/02 12:34:21;;;;;;;;;;;;;;;23.09;31.23;96232.28;4948522;28;1350;-82
2023/01/02 12:36:56;;;;;;;;;;;;;;;23.10;31.18;96229.41;4949891;28;1624;-82
2023/01/02 12:39:31;;;;;;;;;;;;;;;23.12;31.11;96230.03;4955896;29;1111;-81
2023/01/02 12:41:56;;;;;;;;;;;;;;;23.13;31.00;96222.84;4954588;28;1379;-83
2023/01/02 12:44:45;;;;;;;;;;;;;;;23.11;31.09;96219.56;4960733;28;1657;-82
2023/01/02 12:47:13;;;;;;;;;;;;;;;23.09;30.95;96211.69;4955210;28;1440;-82
2023/01/02 12:49:51;;;;;;;;;;;;;;;23.12;30.80;96216.66;4971177;28;1424;-83
2023/01/02 12:52:25;;;;;;;;;;;;;;;23.09;31.15;96211.69;4959130;28;1328;-81
2023/01/02 12:55:12;;;;;;;;;;;;;;;23.10;31.14;96217.88;4960791;28;1053;-83
2023/01/02 12:57:37;;;;;;;;;;;;;;;23.10;31.01;96210.66;4942544;28;1890;-85
2023/01/02 13:00:03;;;;;;;;;;;;;;;23.11;31.10;96220.38;4937312;29;1297;-82
2023/01/02 13:02:52;;;;;;;;;;;;;;;23.12;30.98;96211.31;4950143;29;1295;-82
2023/01/02 13:05:18;;;;;;;;;;;;;;;23.11;31.10;96209.66;4965454;29;1655;-82
2023/01/02 13:07:50;;;;;;;;;;;;;;;23.12;30.94;96215.84;4969596;28;1290;-81
2023/01/02 13:10:17;;;;;;;;;;;;;;;23.13;30.98;96212.94;4965277;28;1226;-81